< Typhoon 199602 1996 Season Typhoon 199604 >
Typhoon 199603 (BART)
General InformationTrack Information on Google MapsDetailed Wind InformationList of All Images || Disaster Info.ResourceGoogle EarthGE AnimationAtom FeedGeoJSON
Detalied Best Track (Time Zone = UTC)
Year Month Day Hour Lat. Long. Pressure (hPa) Wind (kt) Class Image Chart
1996 5 8 18 8.0 140.0 1006 0 2 Image Chart
1996 5 9 00 7.0 140.0 1006 0 2 Image Chart
1996 5 9 06 7.0 140.0 1006 0 2 Image Chart
1996 5 9 12 7.0 139.0 1006 0 2 Image Chart
1996 5 9 18 8.0 139.0 1006 0 2 Image Chart
1996 5 10 00 8.5 139.0 1006 0 2 Image Chart
1996 5 10 06 9.5 137.6 1002 35 3 Image Chart
1996 5 10 12 9.5 136.3 1002 35 3 Image Chart
1996 5 10 18 9.7 134.5 1000 35 3 Image Chart
1996 5 11 00 10.0 132.6 998 35 3 Image Chart
1996 5 11 06 10.6 131.4 996 35 3 Image Chart
1996 5 11 12 11.0 130.7 994 35 3 Image Chart
1996 5 11 18 11.5 130.0 994 35 3 Image Chart
1996 5 12 00 12.0 129.4 990 45 3 Image Chart
1996 5 12 06 12.7 128.6 985 50 4 Image Chart
1996 5 12 12 13.5 128.1 980 55 4 Image Chart
1996 5 12 18 14.0 127.8 975 60 4 Image Chart
1996 5 13 00 14.4 127.3 970 65 5 Image Chart
1996 5 13 06 14.7 126.8 965 65 5 Image Chart
1996 5 13 12 15.2 126.5 960 70 5 Image Chart
1996 5 13 18 15.4 126.1 950 80 5 Image Chart
1996 5 14 00 15.7 125.7 935 90 5 Image Chart
1996 5 14 06 16.2 125.4 930 95 5 Image Chart
1996 5 14 12 16.7 125.2 930 95 5 Image Chart
1996 5 14 18 17.2 124.9 930 95 5 Image Chart
1996 5 15 00 17.7 124.8 930 95 5 Image Chart
1996 5 15 06 18.1 124.8 935 90 5 Image Chart
1996 5 15 12 18.6 125.0 945 85 5 Image Chart
1996 5 15 18 18.9 125.1 950 75 5 Image Chart
1996 5 16 00 19.3 125.7 950 80 5 Image Chart
1996 5 16 06 19.8 126.4 955 75 5 Image Chart
1996 5 16 12 20.0 127.5 955 75 5 Image Chart
1996 5 16 18 20.3 128.8 960 70 5 Image Chart
1996 5 17 00 21.1 130.2 970 65 5 Image Chart
1996 5 17 06 22.5 131.7 975 60 4 Image Chart
1996 5 17 12 23.5 133.3 980 55 4 Image Chart
1996 5 17 18 24.7 135.2 985 55 4 Image Chart
1996 5 18 00 25.6 136.8 985 50 4 Image Chart
1996 5 18 06 26.5 138.4 990 45 3 Image Chart
1996 5 18 12 27.3 140.6 990 40 3 Image Chart
1996 5 18 18 28.0 142.5 992 45 3 Image Chart
1996 5 19 00 28.8 144.6 996 0 6 Image Chart
1996 5 19 06 29.3 147.6 1002 0 6 Image Chart
1996 5 19 12 30.0 150.0 1006 0 6 Image Chart
1996 5 19 18 32.0 155.0 1008 0 6 Image Chart
1996 5 20 00 32.0 156.0 1008 0 6 Image Chart
1996 5 20 06 32.0 160.0 1010 0 6 Image Chart
1996 5 20 12 32.0 171.0 1012 0 6 Image Chart
Japan Meteorological Agency Best Track Data | Correction Date : 1997-01-07
< Typhoon 199602 1996 Season Typhoon 199604 >

Help